Time;durP1;ratioP1;P1;durP2;ratioP2;P2;SDS_P1;SDS_P2;PMS_P1;PMS_P2;Temp;Humidity;BMP_temperature;BMP_pressure;BME280_temperature;BME280_humidity;BME280_pressure;Samples;Min_cycle;Max_cycle;Signal;HPM_P1;HPM_P2
2021/10/16 00:02:05;;;;;;;13.02;7.00;;;6.70;97.00;;;;;;6250771;23;20027;-68
2021/10/16 00:04:34;;;;;;;12.13;6.38;;;6.80;97.10;;;;;;6250176;23;20004;-71
2021/10/16 00:06:59;;;;;;;10.10;6.07;;;6.80;97.40;;;;;;6250085;23;20000;-71
2021/10/16 00:09:25;;;;;;;10.15;5.82;;;6.70;97.50;;;;;;6249890;23;20004;-71
2021/10/16 00:11:51;;;;;;;10.00;6.07;;;6.70;97.60;;;;;;6249094;23;20376;-73
2021/10/16 00:14:16;;;;;;;9.35;5.82;;;6.60;97.60;;;;;;6222195;23;20361;-70
2021/10/16 00:16:42;;;;;;;12.35;6.28;;;6.50;97.90;;;;;;6249757;23;20004;-71
2021/10/16 00:19:08;;;;;;;14.88;6.88;;;6.30;97.70;;;;;;6249829;23;20000;-70
2021/10/16 00:21:35;;;;;;;10.73;6.30;;;6.20;97.70;;;;;;6249302;23;20004;-72
2021/10/16 00:24:00;;;;;;;12.32;5.53;;;6.10;97.40;;;;;;6249549;23;20000;-71
2021/10/16 00:26:29;;;;;;;9.65;5.75;;;6.10;97.20;;;;;;6247832;23;20265;-72
2021/10/16 00:28:57;;;;;;;9.50;6.05;;;6.20;96.70;;;;;;6246494;23;20243;-71
2021/10/16 00:31:23;;;;;;;10.52;6.30;;;6.20;96.80;;;;;;6249203;23;20054;-71
2021/10/16 00:33:49;;;;;;;9.98;6.50;;;6.20;96.60;;;;;;6222989;23;20000;-70
2021/10/16 00:36:15;;;;;;;15.10;7.72;;;6.30;96.40;;;;;;6222997;23;20007;-71
2021/10/16 00:38:40;;;;;;;13.52;6.40;;;6.30;96.10;;;;;;6249420;23;20000;-71
2021/10/16 00:41:11;;;;;;;12.30;7.20;;;6.40;95.70;;;;;;6249333;23;20019;-70
2021/10/16 00:43:37;;;;;;;11.70;6.93;;;6.50;95.80;;;;;;6247841;23;20004;-71
2021/10/16 00:46:03;;;;;;;14.90;7.03;;;6.50;95.90;;;;;;6249670;23;20000;-72
2021/10/16 00:48:29;;;;;;;16.25;6.88;;;6.60;95.80;;;;;;6249283;23;20011;-71
2021/10/16 00:50:54;;;;;;;13.15;6.93;;;6.50;95.80;;;;;;6248861;23;20004;-73
2021/10/16 00:53:20;;;;;;;11.95;6.80;;;6.50;95.80;;;;;;6248682;23;20012;-71
2021/10/16 00:55:49;;;;;;;12.73;6.95;;;6.50;96.00;;;;;;6249630;23;20007;-71
2021/10/16 00:58:15;;;;;;;14.77;7.22;;;6.50;95.70;;;;;;6246496;23;20084;-71
2021/10/16 01:00:43;;;;;;;15.05;7.70;;;6.50;95.70;;;;;;6222362;23;20004;-71
2021/10/16 01:03:09;;;;;;;18.10;8.30;;;6.60;95.70;;;;;;6248874;23;20007;-71
2021/10/16 01:05:37;;;;;;;15.57;7.53;;;6.60;95.40;;;;;;6222098;23;20008;-72
2021/10/16 01:08:03;;;;;;;16.08;6.57;;;6.50;95.90;;;;;;6248817;23;20056;-71
2021/10/16 01:10:28;;;;;;;12.63;6.63;;;6.40;95.70;;;;;;6248025;23;20286;-72
2021/10/16 01:12:55;;;;;;;14.15;7.82;;;6.40;95.60;;;;;;6247708;23;20003;-71
2021/10/16 01:15:23;;;;;;;15.13;6.18;;;6.40;95.80;;;;;;6246917;23;20058;-70
2021/10/16 01:17:49;;;;;;;11.00;6.68;;;6.30;95.70;;;;;;6248670;23;20000;-71
2021/10/16 01:20:21;;;;;;;13.15;7.60;;;6.30;95.40;;;;;;6247647;23;20074;-71
2021/10/16 01:22:49;;;;;;;11.27;6.43;;;6.30;95.60;;;;;;6248939;23;20077;-71
2021/10/16 01:25:20;;;;;;;11.95;6.70;;;6.30;95.40;;;;;;6249242;23;20054;-71
2021/10/16 01:27:47;;;;;;;13.57;7.60;;;6.20;95.20;;;;;;6247067;23;20000;-71
2021/10/16 01:30:16;;;;;;;12.27;6.97;;;6.30;94.80;;;;;;6248105;23;20004;-71
2021/10/16 01:32:42;;;;;;;13.88;8.45;;;6.30;94.70;;;;;;6221220;23;20079;-70
2021/10/16 01:35:10;;;;;;;11.10;7.22;;;6.30;94.90;;;;;;6248739;23;20000;-71
2021/10/16 01:37:39;;;;;;;17.63;8.38;;;6.30;94.70;;;;;;6247068;23;20055;-70
2021/10/16 01:40:06;;;;;;;15.65;8.73;;;6.30;94.60;;;;;;6248183;23;19996;-70
2021/10/16 01:42:35;;;;;;;18.13;8.85;;;6.40;94.40;;;;;;6246178;23;20004;-71
2021/10/16 01:45:00;;;;;;;14.60;8.30;;;6.30;94.50;;;;;;6248014;23;20008;-72
2021/10/16 01:47:26;;;;;;;18.02;9.52;;;6.30;94.60;;;;;;6247607;23;20472;-71
2021/10/16 01:49:55;;;;;;;17.40;9.07;;;6.30;94.20;;;;;;6248790;23;20015;-72
2021/10/16 01:52:22;;;;;;;14.15;8.18;;;6.20;94.90;;;;;;6247661;23;20080;-72
2021/10/16 01:54:48;;;;;;;17.48;8.48;;;6.20;94.70;;;;;;6248759;23;20000;-72
2021/10/16 01:57:13;;;;;;;14.98;9.13;;;6.10;94.80;;;;;;6248599;23;20062;-71
2021/10/16 01:59:39;;;;;;;15.48;8.93;;;6.10;94.90;;;;;;6245922;23;19996;-72
2021/10/16 02:02:05;;;;;;;16.08;9.30;;;6.10;94.70;;;;;;6247818;23;20122;-72
2021/10/16 02:04:31;;;;;;;17.33;9.68;;;6.00;94.60;;;;;;6248804;23;20373;-71
2021/10/16 02:06:56;;;;;;;17.20;9.25;;;6.10;94.20;;;;;;6248247;23;20548;-71
2021/10/16 02:09:22;;;;;;;18.55;9.23;;;6.10;94.80;;;;;;6249358;23;20004;-71
2021/10/16 02:11:48;;;;;;;21.38;9.80;;;6.00;94.70;;;;;;6247651;23;20073;-72
2021/10/16 02:14:16;;;;;;;17.17;8.80;;;6.00;94.60;;;;;;6246567;23;20296;-71
2021/10/16 02:16:42;;;;;;;20.83;10.13;;;6.00;94.00;;;;;;6248455;23;20004;-71
2021/10/16 02:19:07;;;;;;;18.95;9.07;;;6.00;93.90;;;;;;6249012;23;20005;-72
2021/10/16 02:21:33;;;;;;;13.38;8.23;;;6.00;94.20;;;;;;6249661;23;20072;-71
2021/10/16 02:23:59;;;;;;;18.88;7.95;;;6.00;94.70;;;;;;6251258;23;20318;-71
2021/10/16 02:26:24;;;;;;;19.02;10.02;;;5.90;94.70;;;;;;6249580;23;20008;-71
2021/10/16 02:28:50;;;;;;;20.27;10.07;;;5.80;94.30;;;;;;6248716;23;20019;-72
2021/10/16 02:31:16;;;;;;;20.27;10.07;;;5.80;93.80;;;;;;6250537;23;20024;-72
2021/10/16 02:33:42;;;;;;;17.88;9.70;;;5.70;94.20;;;;;;6250740;23;20039;-71
2021/10/16 02:36:07;;;;;;;20.58;10.80;;;5.70;94.10;;;;;;6250652;23;20073;-71
2021/10/16 02:38:33;;;;;;;18.40;9.90;;;5.60;94.60;;;;;;6223144;23;20031;-71
2021/10/16 02:40:59;;;;;;;22.63;10.52;;;5.50;94.40;;;;;;6250339;23;20008;-70
2021/10/16 02:43:24;;;;;;;19.55;10.45;;;5.50;93.90;;;;;;6248507;23;20050;-70
2021/10/16 02:45:50;;;;;;;24.50;11.68;;;5.40;94.50;;;;;;6250636;23;20007;-69
2021/10/16 02:48:16;;;;;;;22.55;12.10;;;5.30;94.80;;;;;;6251001;23;20004;-69
2021/10/16 02:50:44;;;;;;;32.15;13.63;;;5.30;94.30;;;;;;6251269;23;20007;-71
2021/10/16 02:53:10;;;;;;;23.10;11.88;;;5.30;93.70;;;;;;6249461;23;20000;-69
2021/10/16 02:55:35;;;;;;;22.08;11.38;;;5.30;94.00;;;;;;6250195;23;20050;-71
2021/10/16 02:58:01;;;;;;;26.40;13.40;;;5.30;93.70;;;;;;6221391;23;20004;-71
2021/10/16 03:00:27;;;;;;;27.80;13.75;;;5.40;93.20;;;;;;6249949;23;20114;-72
2021/10/16 03:02:52;;;;;;;26.60;14.00;;;5.40;93.50;;;;;;6249741;23;20065;-70
2021/10/16 03:05:18;;;;;;;31.20;14.50;;;5.40;93.20;;;;;;6249839;23;20058;-71
2021/10/16 03:07:44;;;;;;;34.88;15.18;;;5.40;93.70;;;;;;6249276;23;20004;-70
2021/10/16 03:10:09;;;;;;;29.15;13.70;;;5.40;92.50;;;;;;6249964;23;20000;-70
2021/10/16 03:12:38;;;;;;;31.33;16.58;;;5.40;92.40;;;;;;6248094;23;20004;-71
2021/10/16 03:15:04;;;;;;;35.22;15.60;;;5.50;92.20;;;;;;6249676;23;20004;-70
2021/10/16 03:17:30;;;;;;;25.67;13.50;;;5.60;92.40;;;;;;6223539;23;20004;-70
2021/10/16 03:19:56;;;;;;;30.40;14.77;;;5.60;92.30;;;;;;6224002;23;20011;-71
2021/10/16 03:22:21;;;;;;;28.48;14.25;;;5.60;92.30;;;;;;6250223;23;20058;-70
2021/10/16 03:24:47;;;;;;;30.80;15.10;;;5.60;92.40;;;;;;6249832;23;20008;-70
2021/10/16 03:27:13;;;;;;;27.65;14.57;;;5.60;92.20;;;;;;6249785;23;20004;-72
2021/10/16 03:29:38;;;;;;;37.22;17.20;;;5.60;91.80;;;;;;6247571;23;20007;-72
2021/10/16 03:32:04;;;;;;;34.13;16.10;;;5.60;92.00;;;;;;6249169;23;20078;-71
2021/10/16 03:34:30;;;;;;;30.60;16.08;;;5.70;91.80;;;;;;6249770;23;20001;-71
2021/10/16 03:36:56;;;;;;;32.00;16.17;;;5.70;90.80;;;;;;6249529;23;20006;-71
2021/10/16 03:39:22;;;;;;;31.58;15.38;;;5.80;91.00;;;;;;6223207;23;19997;-71
2021/10/16 03:41:48;;;;;;;37.28;16.30;;;5.80;91.20;;;;;;6250014;23;20020;-71
2021/10/16 03:44:14;;;;;;;29.10;14.35;;;5.80;91.50;;;;;;6249063;23;20365;-71
2021/10/16 03:46:40;;;;;;;31.05;15.98;;;5.80;91.40;;;;;;6249183;23;20062;-72
2021/10/16 03:49:06;;;;;;;38.92;18.83;;;5.90;91.00;;;;;;6249677;23;20050;-72
2021/10/16 03:51:31;;;;;;;200.32;63.40;;;5.90;91.00;;;;;;6249774;23;20024;-74
2021/10/16 03:54:01;;;;;;;186.63;63.65;;;5.90;91.80;;;;;;6249746;23;20435;-71
2021/10/16 03:56:27;;;;;;;67.78;28.02;;;5.80;92.20;;;;;;6249501;23;20081;-71
2021/10/16 03:58:52;;;;;;;45.75;20.95;;;5.70;92.20;;;;;;6247875;23;20000;-72
2021/10/16 04:01:18;;;;;;;36.85;19.23;;;5.60;91.80;;;;;;6249296;23;20000;-71
2021/10/16 04:03:44;;;;;;;133.77;60.67;;;5.70;91.50;;;;;;6248754;23;20011;-72
2021/10/16 04:06:09;;;;;;;59.58;27.67;;;5.70;91.60;;;;;;6249126;23;20004;-71
2021/10/16 04:08:35;;;;;;;35.80;16.25;;;5.70;92.10;;;;;;6248631;23;20004;-71
2021/10/16 04:11:01;;;;;;;31.80;15.15;;;5.60;91.70;;;;;;6248895;23;20361;-71
2021/10/16 04:13:26;;;;;;;32.67;16.98;;;5.60;91.40;;;;;;6248090;23;20039;-71
2021/10/16 04:15:52;;;;;;;32.05;17.25;;;5.60;91.10;;;;;;6249224;23;20000;-72
2021/10/16 04:18:18;;;;;;;37.03;17.95;;;5.60;92.40;;;;;;6249245;23;20070;-72
2021/10/16 04:20:45;;;;;;;35.83;16.38;;;5.50;92.60;;;;;;6249680;23;20001;-71
2021/10/16 04:23:11;;;;;;;33.80;16.02;;;5.40;92.50;;;;;;6248939;23;20000;-71
2021/10/16 04:25:37;;;;;;;34.13;17.50;;;5.30;92.60;;;;;;6223089;23;20015;-71
2021/10/16 04:28:03;;;;;;;30.40;15.85;;;5.30;92.10;;;;;;6248065;23;20011;-72
2021/10/16 04:30:28;;;;;;;30.42;16.50;;;5.30;91.90;;;;;;6248793;23;20007;-71
2021/10/16 04:32:55;;;;;;;32.90;17.05;;;5.20;92.50;;;;;;6249221;23;20385;-73
2021/10/16 04:35:21;;;;;;;32.28;18.38;;;5.10;92.40;;;;;;6248889;23;20003;-72
2021/10/16 04:37:47;;;;;;;35.75;17.48;;;5.10;92.30;;;;;;6223134;23;20004;-71
2021/10/16 04:40:21;;;;;;;28.60;16.95;;;5.10;92.20;;;;;;6248649;23;20000;-71
2021/10/16 04:42:53;;;;;;;29.00;15.48;;;5.00;92.40;;;;;;6248129;23;20370;-71
2021/10/16 04:45:19;;;;;;;32.28;17.08;;;5.00;92.80;;;;;;6249444;23;20070;-72
2021/10/16 04:47:45;;;;;;;28.33;14.98;;;4.90;93.00;;;;;;6249699;23;20000;-71
2021/10/16 04:50:12;;;;;;;33.55;15.13;;;4.80;93.30;;;;;;6249788;23;20362;-71
2021/10/16 04:52:38;;;;;;;29.58;14.63;;;4.70;93.40;;;;;;6247525;23;20000;-72
2021/10/16 04:55:05;;;;;;;31.75;14.82;;;4.70;93.30;;;;;;6249038;23;20083;-71
2021/10/16 04:57:31;;;;;;;28.75;14.30;;;4.60;93.20;;;;;;6247693;23;20000;-71
2021/10/16 04:59:56;;;;;;;30.52;14.45;;;4.60;92.70;;;;;;6249874;23;20278;-71
2021/10/16 05:02:24;;;;;;;28.38;14.27;;;4.70;91.60;;;;;;6249431;23;20000;-71
2021/10/16 05:04:51;;;;;;;41.90;16.38;;;4.90;90.90;;;;;;6247576;23;20004;-71
2021/10/16 05:07:20;;;;;;;41.72;16.48;;;5.00;90.70;;;;;;6249112;23;20008;-71
2021/10/16 05:09:46;;;;;;;40.42;15.63;;;5.10;91.00;;;;;;6249326;23;20388;-71
2021/10/16 05:12:12;;;;;;;28.52;13.23;;;5.10;91.60;;;;;;6249053;23;20001;-72
2021/10/16 05:14:38;;;;;;;30.27;13.85;;;5.10;91.90;;;;;;6247930;23;20003;-71
2021/10/16 05:17:04;;;;;;;26.50;12.25;;;5.00;91.90;;;;;;6249403;23;20350;-72
2021/10/16 05:19:30;;;;;;;32.05;14.13;;;5.00;91.60;;;;;;6249038;23;20067;-71
2021/10/16 05:21:56;;;;;;;27.00;12.82;;;5.00;91.80;;;;;;6249733;23;20004;-72
2021/10/16 05:24:21;;;;;;;36.70;15.73;;;5.00;91.20;;;;;;6248860;23;20011;-71
2021/10/16 05:26:47;;;;;;;36.55;15.45;;;5.00;91.40;;;;;;6248678;23;20303;-71
2021/10/16 05:29:13;;;;;;;33.78;15.63;;;5.00;91.30;;;;;;6247593;23;20380;-71
2021/10/16 05:31:38;;;;;;;28.38;13.15;;;5.10;90.80;;;;;;6248624;23;20063;-71
2021/10/16 05:34:04;;;;;;;28.45;14.95;;;5.10;90.60;;;;;;6248356;23;20011;-70
2021/10/16 05:36:29;;;;;;;24.98;13.02;;;5.20;90.60;;;;;;6247785;23;20011;-72
2021/10/16 05:38:55;;;;;;;27.67;13.35;;;5.20;90.60;;;;;;6248607;23;20075;-70
2021/10/16 05:41:21;;;;;;;26.98;13.00;;;5.20;90.50;;;;;;6221698;23;20012;-70
2021/10/16 05:43:47;;;;;;;23.80;12.20;;;5.30;90.50;;;;;;6246972;23;20008;-69
2021/10/16 05:46:12;;;;;;;25.08;12.82;;;5.30;89.50;;;;;;6249056;23;20000;-69
2021/10/16 05:48:38;;;;;;;25.33;12.27;;;5.30;90.70;;;;;;6222503;23;20004;-71
2021/10/16 05:51:03;;;;;;;26.13;12.10;;;5.40;90.30;;;;;;6248572;23;20381;-71
2021/10/16 05:53:29;;;;;;;26.73;12.38;;;5.40;90.90;;;;;;6222377;23;20069;-71
2021/10/16 05:55:55;;;;;;;32.53;13.02;;;5.40;90.80;;;;;;6248921;23;20004;-71
2021/10/16 05:58:26;;;;;;;21.73;10.93;;;5.50;90.80;;;;;;6247244;23;20063;-71
2021/10/16 06:00:52;;;;;;;24.52;12.07;;;5.50;89.80;;;;;;6248323;23;19996;-71
2021/10/16 06:03:18;;;;;;;21.23;10.13;;;5.60;90.20;;;;;;6248856;23;20316;-70
2021/10/16 06:05:46;;;;;;;22.50;12.80;;;5.60;89.90;;;;;;6248027;23;19996;-71
2021/10/16 06:08:12;;;;;;;24.27;12.57;;;5.70;89.50;;;;;;6221332;23;20070;-70
2021/10/16 06:10:37;;;;;;;28.13;13.30;;;5.80;89.50;;;;;;6248809;23;20422;-71
2021/10/16 06:13:06;;;;;;;34.88;18.17;;;5.80;90.10;;;;;;6220435;23;20087;-71
2021/10/16 06:15:31;;;;;;;30.92;16.92;;;5.80;90.80;;;;;;6248738;23;20261;-71
2021/10/16 06:17:57;;;;;;;36.30;17.25;;;5.80;90.40;;;;;;6248441;23;20000;-71
2021/10/16 06:20:29;;;;;;;31.92;15.07;;;5.90;90.60;;;;;;6247779;23;20330;-72
2021/10/16 06:22:55;;;;;;;32.45;15.52;;;6.10;89.40;;;;;;6248725;23;20000;-70
2021/10/16 06:25:20;;;;;;;29.02;14.60;;;6.20;90.00;;;;;;6248673;23;20058;-71
2021/10/16 06:27:46;;;;;;;43.20;22.30;;;6.30;89.90;;;;;;6247076;23;20061;-71
2021/10/16 06:30:12;;;;;;;28.15;16.27;;;6.30;90.90;;;;;;6248098;23;20362;-72
2021/10/16 06:32:37;;;;;;;71.72;36.22;;;6.30;91.00;;;;;;6248082;23;20031;-71
2021/10/16 06:35:05;;;;;;;57.92;31.05;;;6.30;91.20;;;;;;6248419;23;19997;-72
2021/10/16 06:37:30;;;;;;;80.13;43.78;;;6.30;92.80;;;;;;6247787;23;20054;-70
2021/10/16 06:39:56;;;;;;;73.82;35.85;;;6.20;93.20;;;;;;6247808;23;20008;-71
2021/10/16 06:42:22;;;;;;;61.30;30.48;;;6.20;93.10;;;;;;6220901;23;20020;-70
2021/10/16 06:44:47;;;;;;;49.42;27.02;;;6.20;92.90;;;;;;6248108;23;20266;-72
2021/10/16 06:47:15;;;;;;;34.67;17.63;;;6.30;93.50;;;;;;6248113;23;20008;-71
2021/10/16 06:49:41;;;;;;;30.20;16.70;;;6.40;93.10;;;;;;6247816;23;20067;-71
2021/10/16 06:52:07;;;;;;;33.00;18.10;;;6.50;93.70;;;;;;6248537;23;20027;-71
2021/10/16 06:54:33;;;;;;;32.58;17.83;;;6.60;94.00;;;;;;6248014;23;20468;-72
2021/10/16 06:56:58;;;;;;;27.60;15.35;;;6.70;94.00;;;;;;6248146;23;20003;-72
2021/10/16 06:59:24;;;;;;;27.80;14.85;;;6.80;94.30;;;;;;6247280;23;20004;-72
2021/10/16 07:01:50;;;;;;;24.65;14.77;;;6.90;95.30;;;;;;6248040;23;20000;-71
2021/10/16 07:04:15;;;;;;;23.45;13.40;;;6.90;95.10;;;;;;6248166;23;20000;-71
2021/10/16 07:06:41;;;;;;;24.52;13.35;;;7.10;94.70;;;;;;6248208;23;20003;-72
2021/10/16 07:09:07;;;;;;;26.02;14.75;;;7.40;94.90;;;;;;6249354;23;20000;-71
2021/10/16 07:11:33;;;;;;;28.75;15.60;;;7.50;95.30;;;;;;6250089;23;20003;-71
2021/10/16 07:13:58;;;;;;;26.70;14.88;;;7.70;96.20;;;;;;6221725;23;20399;-72
2021/10/16 07:16:24;;;;;;;28.52;15.57;;;7.80;96.60;;;;;;6249911;23;20000;-72
2021/10/16 07:18:50;;;;;;;27.67;14.90;;;7.90;97.70;;;;;;6250249;23;19997;-72
2021/10/16 07:21:15;;;;;;;22.60;14.25;;;8.00;97.90;;;;;;6249769;23;20001;-71
2021/10/16 07:23:41;;;;;;;24.23;14.20;;;8.20;98.00;;;;;;6249945;23;20011;-72
2021/10/16 07:26:08;;;;;;;34.97;19.77;;;8.40;98.00;;;;;;6249891;23;20065;-72
2021/10/16 07:28:33;;;;;;;26.67;16.23;;;8.50;98.00;;;;;;6247750;23;20000;-71
2021/10/16 07:30:59;;;;;;;28.67;16.52;;;8.50;98.00;;;;;;6249189;23;20008;-71
2021/10/16 07:33:25;;;;;;;30.60;16.13;;;8.40;98.00;;;;;;6248837;23;20000;-71
2021/10/16 07:35:50;;;;;;;30.13;16.45;;;8.40;98.00;;;;;;6249612;23;20057;-72
2021/10/16 07:38:16;;;;;;;21.25;14.02;;;8.50;98.00;;;;;;6250359;23;20035;-71
2021/10/16 07:40:42;;;;;;;21.50;13.35;;;8.60;98.00;;;;;;6249597;23;20053;-72
2021/10/16 07:43:11;;;;;;;24.05;14.25;;;8.80;98.00;;;;;;6247435;23;20000;-72
2021/10/16 07:45:37;;;;;;;28.45;15.32;;;8.80;98.00;;;;;;6249658;23;20280;-72
2021/10/16 07:48:03;;;;;;;25.02;14.35;;;8.80;98.00;;;;;;6250273;23;20000;-70
2021/10/16 07:50:32;;;;;;;25.42;15.07;;;8.80;98.00;;;;;;6248929;23;20305;-71
2021/10/16 07:52:58;;;;;;;25.10;14.20;;;8.90;98.00;;;;;;6248671;23;20591;-72
2021/10/16 07:55:24;;;;;;;22.30;12.65;;;9.00;98.00;;;;;;6248462;23;19996;-71
2021/10/16 07:57:49;;;;;;;21.38;11.80;;;9.10;98.00;;;;;;6247314;23;19996;-71
2021/10/16 08:00:15;;;;;;;18.45;10.55;;;9.20;98.00;;;;;;6249633;23;20071;-72
2021/10/16 08:02:41;;;;;;;19.40;11.20;;;9.40;98.00;;;;;;6249213;23;20035;-71
2021/10/16 08:05:07;;;;;;;19.05;11.43;;;9.60;98.00;;;;;;6250092;23;20332;-71
2021/10/16 08:07:32;;;;;;;18.58;10.52;;;9.50;98.00;;;;;;6248248;23;20103;-72
2021/10/16 08:09:58;;;;;;;22.10;12.50;;;9.50;98.00;;;;;;6249681;23;20061;-71
2021/10/16 08:12:24;;;;;;;19.40;11.60;;;9.60;98.00;;;;;;6248174;23;20000;-70
2021/10/16 08:14:51;;;;;;;20.25;12.15;;;9.80;98.00;;;;;;6249604;23;20006;-71
2021/10/16 08:17:17;;;;;;;21.08;10.52;;;10.10;98.00;;;;;;6248634;23;20011;-71
2021/10/16 08:19:42;;;;;;;22.08;12.48;;;10.30;98.00;;;;;;6249142;23;20000;-72
2021/10/16 08:22:10;;;;;;;18.30;10.77;;;10.50;98.00;;;;;;6249912;23;20011;-71
2021/10/16 08:24:35;;;;;;;17.77;10.45;;;10.80;98.00;;;;;;6249853;23;20072;-72
2021/10/16 08:27:01;;;;;;;17.95;10.63;;;11.10;98.00;;;;;;6249664;23;20024;-71
2021/10/16 08:29:27;;;;;;;15.43;9.18;;;12.30;96.00;;;;;;6248337;23;20015;-72
2021/10/16 08:31:53;;;;;;;15.77;8.80;;;13.00;92.30;;;;;;6249474;23;20004;-72
2021/10/16 08:34:21;;;;;;;17.75;10.70;;;12.80;91.60;;;;;;6249475;23;19997;-72
2021/10/16 08:36:47;;;;;;;15.23;9.93;;;12.30;93.80;;;;;;6248525;23;20004;-71
2021/10/16 08:39:15;;;;;;;17.08;9.65;;;12.20;92.80;;;;;;6248178;23;20012;-71
2021/10/16 08:41:42;;;;;;;16.55;8.65;;;11.90;94.30;;;;;;6248553;23;20016;-72
2021/10/16 08:44:08;;;;;;;18.27;10.88;;;11.60;95.20;;;;;;6247080;23;20000;-72
2021/10/16 08:46:41;;;;;;;28.85;10.65;;;11.60;95.10;;;;;;6248527;23;20058;-71
2021/10/16 08:49:07;;;;;;;16.45;10.02;;;11.50;95.90;;;;;;6249147;23;20000;-71
2021/10/16 08:51:32;;;;;;;17.63;10.13;;;11.60;95.60;;;;;;6249105;23;20004;-72
2021/10/16 08:53:58;;;;;;;18.13;9.68;;;11.60;95.10;;;;;;6249105;23;20000;-71
2021/10/16 08:56:24;;;;;;;16.88;10.32;;;11.80;95.40;;;;;;6248843;23;19996;-72
2021/10/16 08:58:50;;;;;;;16.17;9.68;;;11.70;95.00;;;;;;6248135;23;20034;-72
2021/10/16 09:01:16;;;;;;;15.13;9.25;;;12.40;94.80;;;;;;6249788;23;20139;-72
2021/10/16 09:03:47;;;;;;;15.63;9.15;;;13.40;91.50;;;;;;6249652;23;20079;-72
2021/10/16 09:06:30;;;;;;;16.10;8.93;;;14.10;89.30;;;;;;6221717;23;20373;-71
2021/10/16 09:09:07;;;;;;;13.73;8.25;;;15.00;86.50;;;;;;6248618;23;20054;-71
2021/10/16 09:11:40;;;;;;;13.73;8.60;;;15.40;84.20;;;;;;6249433;23;20000;-70
2021/10/16 09:14:11;;;;;;;13.02;7.22;;;15.90;83.40;;;;;;6246607;23;20307;-69
2021/10/16 09:16:42;;;;;;;11.75;7.57;;;16.00;83.30;;;;;;6248519;23;20138;-70
2021/10/16 09:19:30;;;;;;;13.63;8.82;;;15.90;83.20;;;;;;6249491;23;20450;-70
2021/10/16 09:22:10;;;;;;;14.27;8.70;;;15.80;82.20;;;;;;6249354;23;20008;-70
2021/10/16 09:24:41;;;;;;;14.70;8.30;;;15.60;82.80;;;;;;6249136;23;20446;-72
2021/10/16 09:27:22;;;;;;;14.57;8.25;;;15.00;84.30;;;;;;6248258;23;20087;-70
2021/10/16 09:29:51;;;;;;;13.23;8.18;;;15.60;83.70;;;;;;6248518;23;20004;-71
2021/10/16 09:32:24;;;;;;;12.88;8.63;;;16.40;82.40;;;;;;6248071;23;20038;-69
2021/10/16 09:35:00;;;;;;;10.93;7.13;;;16.30;80.70;;;;;;6248447;23;19996;-70
2021/10/16 09:37:25;;;;;;;16.25;9.10;;;16.20;81.30;;;;;;6248630;23;20243;-71
2021/10/16 09:39:59;;;;;;;15.05;9.02;;;15.30;81.90;;;;;;6248515;23;19996;-69
2021/10/16 09:42:33;;;;;;;17.55;9.93;;;14.50;85.50;;;;;;6247550;23;20335;-69
2021/10/16 09:45:05;;;;;;;16.55;10.05;;;14.10;87.00;;;;;;6248710;23;20422;-71
2021/10/16 09:47:30;;;;;;;17.55;10.43;;;13.30;88.90;;;;;;6248793;23;20012;-70
2021/10/16 09:50:06;;;;;;;16.40;10.40;;;12.80;91.00;;;;;;6248616;23;20015;-71
2021/10/16 09:52:42;;;;;;;15.65;9.77;;;12.20;92.70;;;;;;6244960;23;20120;-70
2021/10/16 09:55:12;;;;;;;14.68;9.90;;;12.30;94.10;;;;;;6245365;23;20003;-71
2021/10/16 09:57:40;;;;;;;14.02;8.68;;;13.20;91.70;;;;;;6246175;23;20388;-71
2021/10/16 10:00:08;;;;;;;16.20;9.38;;;13.40;90.80;;;;;;6245536;23;20084;-72
2021/10/16 10:02:34;;;;;;;15.07;9.38;;;13.80;88.80;;;;;;6246085;23;20079;-71
2021/10/16 10:05:05;;;;;;;14.90;8.93;;;14.00;89.20;;;;;;6247624;23;20369;-71
2021/10/16 10:07:32;;;;;;;18.83;11.27;;;14.30;88.10;;;;;;6246674;23;20388;-70
2021/10/16 10:10:06;;;;;;;17.23;9.50;;;14.00;87.90;;;;;;6219971;23;20008;-71
2021/10/16 10:12:33;;;;;;;17.70;10.10;;;13.10;90.60;;;;;;6247362;23;20361;-70
2021/10/16 10:14:59;;;;;;;15.35;10.35;;;12.40;92.40;;;;;;6247154;23;19996;-70
2021/10/16 10:17:30;;;;;;;19.92;10.80;;;11.90;94.10;;;;;;6248235;23;20032;-71
2021/10/16 10:20:10;;;;;;;18.70;11.13;;;12.00;94.80;;;;;;6220245;23;20008;-69
2021/10/16 10:22:37;;;;;;;15.57;10.48;;;11.90;94.90;;;;;;6247265;23;20008;-70
2021/10/16 10:25:32;;;;;;;17.25;10.63;;;12.30;93.90;;;;;;6248203;23;20004;-70
2021/10/16 10:27:58;;;;;;;19.63;11.23;;;12.30;93.90;;;;;;6219020;23;20103;-70
2021/10/16 10:30:40;;;;;;;16.00;9.55;;;12.20;93.80;;;;;;6221901;23;20036;-69
2021/10/16 10:33:24;;;;;;;15.90;9.27;;;12.80;93.90;;;;;;6248560;23;20004;-69
2021/10/16 10:36:05;;;;;;;16.25;10.05;;;14.30;90.50;;;;;;6221776;23;20000;-71
2021/10/16 10:38:35;;;;;;;15.35;9.00;;;14.80;87.20;;;;;;6248762;23;20361;-71
2021/10/16 10:41:22;;;;;;;13.38;8.13;;;15.20;86.50;;;;;;6248565;23;20016;-72
2021/10/16 10:43:49;;;;;;;12.60;8.13;;;15.90;84.10;;;;;;6249223;23;20004;-70
2021/10/16 10:46:15;;;;;;;12.73;7.95;;;16.50;82.70;;;;;;6250315;23;20000;-71
2021/10/16 10:48:42;;;;;;;14.93;9.05;;;16.70;82.30;;;;;;6250339;23;20003;-70
2021/10/16 10:51:08;;;;;;;13.25;8.52;;;16.60;81.50;;;;;;6223037;23;20437;-70
2021/10/16 10:53:36;;;;;;;13.25;8.13;;;16.70;82.50;;;;;;6223460;23;20046;-70
2021/10/16 10:56:07;;;;;;;13.40;8.18;;;17.00;81.30;;;;;;6250438;23;20004;-70
2021/10/16 10:58:52;;;;;;;13.82;9.55;;;17.20;80.50;;;;;;6248826;23;20000;-71
2021/10/16 11:01:52;;;;;;;13.82;8.93;;;16.20;81.40;;;;;;6224205;23;20004;-69
2021/10/16 11:04:43;;;;;;;17.02;9.82;;;15.40;85.30;;;;;;6223608;23;20004;-68
2021/10/16 11:07:12;;;;;;;16.48;10.32;;;15.70;84.60;;;;;;6233245;23;20012;-70
2021/10/16 11:09:39;;;;;;;15.80;9.73;;;16.00;83.20;;;;;;6250488;23;20026;-70
2021/10/16 11:12:06;;;;;;;19.77;10.45;;;16.20;83.70;;;;;;6250610;23;20051;-70
2021/10/16 11:14:38;;;;;;;16.50;10.55;;;15.70;83.50;;;;;;6249308;23;20001;-69
2021/10/16 11:17:08;;;;;;;15.77;10.77;;;14.90;85.90;;;;;;6250354;23;20157;-71
2021/10/16 11:19:56;;;;;;;16.17;10.02;;;14.50;87.70;;;;;;6251077;23;20000;-70
2021/10/16 11:22:26;;;;;;;14.30;9.32;;;14.50;88.00;;;;;;6250765;23;20028;-71
2021/10/16 11:25:01;;;;;;;16.35;10.77;;;14.40;88.70;;;;;;6250652;23;20027;-71
2021/10/16 11:27:26;;;;;;;20.92;11.02;;;14.40;87.70;;;;;;6249646;23;20012;-70
2021/10/16 11:29:55;;;;;;;19.55;12.02;;;14.10;88.90;;;;;;6250381;23;20028;-69
2021/10/16 11:32:23;;;;;;;18.83;11.65;;;13.90;89.50;;;;;;6223731;23;20008;-71
2021/10/16 11:35:05;;;;;;;20.23;12.30;;;13.60;90.20;;;;;;6251076;23;20226;-70
2021/10/16 11:37:36;;;;;;;19.58;11.57;;;13.50;90.80;;;;;;6223353;23;20038;-69
2021/10/16 11:40:06;;;;;;;17.77;10.60;;;13.50;91.20;;;;;;6249655;23;20004;-71
2021/10/16 11:42:33;;;;;;;22.10;11.40;;;13.50;90.80;;;;;;6248562;23;20019;-70
2021/10/16 11:45:00;;;;;;;16.13;10.38;;;13.80;91.80;;;;;;6248466;23;20008;-69
2021/10/16 11:47:26;;;;;;;18.13;10.15;;;14.40;88.90;;;;;;6248767;23;20004;-71
2021/10/16 11:49:52;;;;;;;22.00;11.63;;;14.20;89.10;;;;;;6250155;23;20004;-71
2021/10/16 11:52:24;;;;;;;18.13;10.77;;;13.90;89.30;;;;;;6250041;23;20004;-71
2021/10/16 11:55:27;;;;;;;17.23;11.15;;;13.30;90.30;;;;;;6249917;23;20077;-71
2021/10/16 11:58:04;;;;;;;22.15;9.90;;;12.80;91.80;;;;;;6248815;23;19996;-71
2021/10/16 12:00:31;;;;;;;14.57;9.68;;;13.50;92.30;;;;;;6249982;23;20000;-71
2021/10/16 12:02:57;;;;;;;17.52;10.48;;;14.20;90.00;;;;;;6250392;23;20435;-72
2021/10/16 12:05:26;;;;;;;14.90;8.90;;;14.20;89.10;;;;;;6250227;23;20118;-72
2021/10/16 12:07:53;;;;;;;16.38;9.50;;;14.80;89.20;;;;;;6249547;23;20075;-72
2021/10/16 12:10:44;;;;;;;13.45;8.63;;;16.40;85.60;;;;;;6249973;23;20023;-71
2021/10/16 12:13:21;;;;;;;13.45;8.90;;;17.50;81.70;;;;;;6248611;23;20000;-71
2021/10/16 12:15:50;;;;;;;14.90;8.77;;;18.00;77.70;;;;;;6250289;23;20009;-71
2021/10/16 12:18:29;;;;;;;15.82;9.20;;;18.00;78.70;;;;;;6250538;23;20011;-71
2021/10/16 12:21:03;;;;;;;16.70;9.23;;;17.30;78.00;;;;;;6223061;23;20082;-72
2021/10/16 12:23:48;;;;;;;14.13;8.52;;;16.80;80.80;;;;;;6223349;23;20054;-71
2021/10/16 12:26:20;;;;;;;13.20;8.40;;;16.40;81.50;;;;;;6248951;23;20370;-71
2021/10/16 12:28:47;;;;;;;17.50;10.50;;;16.20;82.20;;;;;;6248005;23;19996;-72
2021/10/16 12:31:13;;;;;;;16.52;10.02;;;16.50;82.00;;;;;;6249687;23;20000;-70
2021/10/16 12:34:01;;;;;;;16.27;9.93;;;16.70;81.70;;;;;;6249371;23;20066;-70
2021/10/16 12:36:39;;;;;;;12.70;9.25;;;16.90;80.90;;;;;;6249698;23;20235;-71
2021/10/16 12:39:10;;;;;;;16.10;9.82;;;17.10;80.20;;;;;;6249731;23;19996;-70
2021/10/16 12:41:45;;;;;;;15.45;9.82;;;17.50;79.10;;;;;;6249835;23;20286;-69
2021/10/16 12:44:15;;;;;;;16.70;10.00;;;17.60;79.40;;;;;;6248265;23;19996;-70